Main page
METAR-TAF:

METAR-TAF

Airports :

Assiut Airport

Asyut, Egypt

latitude: 27-03N, longitude: 031-01E, elevation: 226 m

Current weather observation

The report was made 1 hour and 27 minutes ago, at 11:00 UTC
Wind 12 kt from the Northwest
Temperature 21°C
Humidity 53%
Pressure 1017 hPa
Visibility 10 km or more
no clouds below 1500 m and no cumulonimbus

METAR: HEAT 031100Z 31012KT CAVOK 21/11 Q1017 NOSIG

Time: 14:27 (12:27 UTC)

Forecast

The report was made 1 hour and 27 minutes ago, at 11:00 UTC
Forecast valid from 03 at 12 UTC to 04 at 18 UTC
Wind 10 kt from the North/Northwest
Visibility 10 km or more
no clouds below 1500 m and no cumulonimbus

TAF: HEAT 031100Z 0312/0418 34010KT CAVOK

Weather observations and forecasts of more than 4000 airports (METAR and TAF reports).

The available stations are represented by yellow and red dots on the map.

Hover mouse over dot to see the name of the station.

Then click to see weather observations and forecasts.

To change the map : click on the green buttons with a black cross to zoom in, on the green button with a dash to zoom out, or on the green arrows for adjacent maps.


METAR-TAF: